This is the latest recevied weather packets stored in our database for station/object KG4AGD. If no packets are shown the sender has not sent any weather packets the latest 10 day(s).
| Time | Temp. | Humidity | Pressure | Rain* | Wind** | Luminosity | Snow |
|---|---|---|---|---|---|---|---|
| 1778012942 | 27.78° C | 50% | 1015.9 hPa | 0 mm | - | - | - |
| 1778012640 | 27.22° C | 49% | 1015.9 hPa | 0 mm | - | - | - |
| 1778012338 | 26.67° C | 50% | 1015.9 hPa | 0 mm | - | - | - |
| 1778012036 | 26.67° C | 50% | 1015.9 hPa | 0 mm | - | - | - |
| 1778011734 | 27.78° C | 48% | 1015.9 hPa | 0 mm | - | - | - |
| 1778011432 | 27.78° C | 49% | 1016.2 hPa | 0 mm | - | - | - |
| 1778011129 | 27.22° C | 50% | 1016.2 hPa | 0 mm | - | - | - |
| 1778010827 | 26.67° C | 50% | 1016.5 hPa | 0 mm | - | - | - |
| 1778010525 | 27.22° C | 47% | 1016.5 hPa | 0 mm | - | - | - |
| 1778010223 | 27.22° C | 49% | 1016.5 hPa | 0 mm | - | - | - |
| 1778009920 | 27.78° C | 47% | 1016.5 hPa | 0 mm | - | - | - |
| 1778009618 | 26.67° C | 48% | 1016.5 hPa | 0 mm | - | - | - |
| 1778009316 | 26.67° C | 50% | 1016.9 hPa | 0 mm | - | - | - |
| 1778009014 | 26.67° C | 48% | 1016.9 hPa | 0 mm | - | - | - |
| 1778008711 | 27.78° C | 46% | 1016.9 hPa | 0 mm | - | - | - |
| 1778008409 | 27.78° C | 48% | 1016.9 hPa | 0 mm | - | - | - |
| 1778008107 | 27.78° C | 47% | 1017.2 hPa | 0 mm | - | - | - |
| 1778007805 | 27.22° C | 49% | 1017.2 hPa | 0 mm | - | - | - |
| 1778007502 | 27.78° C | 48% | 1017.2 hPa | 0 mm | - | - | - |
| 1778007200 | 27.22° C | 48% | 1017.2 hPa | 0 mm | - | - | - |
| 1778006898 | 27.22° C | 48% | 1017.2 hPa | 0 mm | - | - | - |
| 1778006596 | 27.22° C | 47% | 1017.2 hPa | 0 mm | - | - | - |
| 1778006293 | 27.22° C | 49% | 1017.6 hPa | 0 mm | - | - | - |
| 1778005991 | 27.22° C | 48% | 1017.6 hPa | 0 mm | - | - | - |
| 1778005689 | 26.67° C | 48% | 1017.6 hPa | 0 mm | - | - | - |
* Rain since midnight (hover to see other rain measurements)
** Current wind speed in m/s (hover to see current wind gust speed)